KPRO/PRO METAR and TAF weather

Enter ICAO airport designator
Station Type Date Time Source
KPRO METAR 2021/03/09 10:15 UTC NOAA

KPRO 091015Z AUTO 15009KT 10SM CLR 07/01 A3005 RMK AO2 T00700013


Station Type Date Time Source
KPRO Decoded METAR 2021/03/09 10:15 UTC NOAA

Station name not available
Mar 09, 2021 - 05:15 AM EST / 2021.03.09 1015 UTC
Wind: from the SSE (150 degrees) at 10 MPH (9 KT):0
Visibility: 10 mile(s):0
Sky conditions: clear
Temperature: 44.6 F (7.0 C)
Dew Point: 34.3 F (1.3 C)
Relative Humidity: 67%
Pressure (altimeter): 30.05 in. Hg (1017 hPa)
ob: KPRO 091015Z AUTO 15009KT 10SM CLR 07/01 A3005 RMK AO2 T00700013
cycle: 10

Station Type Date Time Source
KPRO TAF UTC NOAA

Error!

Example: see airport list